Nearby METAR Reports

 

KICL - Clarinda, Iowa, USA
Distance from station: N 49mi, 79km
Updated: Tue, 19-Sep-2017 1:35pm CDT
Clear
Clear
 Wind from SSE
Wind: SSE 13 mph , 20 km/h, Gust: 22 mph , 35 km/h
Temperature: 84°F , 29°C
Heat Index: 88°F , 31°C
Dew Point: 70°F , 21°C
Humidity: 62%
Barometer: 29.79 inHg , 1008.8 hPa
Clouds: Clear
Visibility: 10 miles , 16 km
2017/09/19 18:35 KICL 191835Z AUTO 16011G19KT 130V190 10SM CLR 29/21 A2979 RMK AO2 PWINO
KDSM - Des Moines, Iowa, USA
Distance from station: NNE 122mi, 196km
Updated: Tue, 19-Sep-2017 12:54pm CDT
Mostly cloudy
Mostly cloudy
 Wind from SSE
Wind: SSE 12 mph , 19 km/h
Temperature: 79°F , 26°C
Dew Point: 68°F , 20°C
Humidity: 70%
Barometer: 29.86 inHg , 1011.2 hPa
Clouds: Mostly cloudy
Visibility: 10 miles , 16 km
Cloud details: Partly cloudy 2000 ft
Partly cloudy 4000 ft
Mostly cloudy 25000 ft
2017/09/19 17:54 KDSM 191754Z 16010KT 10SM SCT020 SCT040 BKN250 26/20 A2986 RMK AO2 SLP107 T02560200 10261 20167 58013
KFNB - Falls City, Nebraska, USA
Distance from station: W 50mi, 80km
Updated: Tue, 19-Sep-2017 12:53pm CDT
Clear
Clear
 Wind from SSE
Wind: SSE 17 mph , 28 km/h, Gust: 28 mph , 44 km/h
Temperature: 86°F , 30°C
Heat Index: 88°F , 31°C
Dew Point: 66°F , 19°C
Humidity: 52%
Barometer: 29.76 inHg , 1007.8 hPa
Clouds: Clear
Visibility: 10 miles , 16 km
2017/09/19 17:53 KFNB 191753Z AUTO 15015G24KT 10SM CLR 30/19 A2976 RMK AO2 SLP068 T03000194 10300 20183 58026
 
KMCI - Kansas City, Missouri, USA
Distance from station: S 65mi, 104km
Updated: Tue, 19-Sep-2017 12:53pm CDT
Few Clouds
Few Clouds
 Wind from SE
Wind: SE 16 mph , 26 km/h
Temperature: 82°F , 28°C
Heat Index: 86°F , 30°C
Dew Point: 70°F , 21°C
Humidity: 66%
Barometer: 29.84 inHg , 1010.5 hPa
Clouds: Few Clouds
Visibility: 10 miles , 16 km
Cloud details: Few Clouds 7000 ft
Few Clouds 25000 ft
2017/09/19 17:53 KMCI 191753Z 14014KT 10SM FEW070 FEW250 28/21 A2984 RMK AO2 SLP094 T02830206 10283 20189 56020
KOMA - Omaha, Nebraska, USA
Distance from station: NNW 105mi, 169km
Updated: Tue, 19-Sep-2017 12:52pm CDT
Partly cloudy
Partly cloudy
 Wind from SE
Wind: SE 22 mph , 35 km/h
Temperature: 84°F , 29°C
Heat Index: 87°F , 31°C
Dew Point: 68°F , 20°C
Humidity: 58%
Barometer: 29.73 inHg , 1006.8 hPa
Clouds: Partly cloudy
Visibility: 10 miles , 16 km
Cloud details: Partly cloudy 25000 ft
2017/09/19 17:52 KOMA 191752Z 13019KT 10SM SCT250 29/20 A2973 RMK AO2 SLP059 T02890200 10289 20200 58027 $
KRDK - Red Oak, Iowa, USA
Distance from station: N 70mi, 112km
Updated: Tue, 19-Sep-2017 1:35pm CDT
Clear
Clear
 Wind from SE
Wind: SE 18 mph , 30 km/h, Gust: 26 mph , 43 km/h
Temperature: 84°F , 29°C
Heat Index: 87°F , 31°C
Dew Point: 68°F , 20°C
Humidity: 58%
Barometer: 29.75 inHg , 1007.5 hPa
Clouds: Clear
Visibility: 10 miles , 16 km
2017/09/19 18:35 KRDK 191835Z AUTO 14016G23KT 10SM CLR 29/20 A2975 RMK AO2
 
KSTJ - Saint Joseph, Missouri, USA
Distance from station: SW 23mi, 37km
Updated: Tue, 19-Sep-2017 12:53pm CDT
Clear
Clear
 Wind from SE
Wind: SE 15 mph , 24 km/h
Temperature: 86°F , 30°C
Heat Index: 92°F , 33°C
Dew Point: 72°F , 22°C
Humidity: 62%
Barometer: 29.80 inHg , 1009.1 hPa
Clouds: Clear
Visibility: 10 miles , 16 km
2017/09/19 17:53 KSTJ 191753Z 14013KT 10SM CLR 30/22 A2980 RMK AO2 SLP084 T03000217 10300 20172 56026
KTOP - Topeka, Kansas, USA
Distance from station: SW 85mi, 137km
Updated: Tue, 19-Sep-2017 12:53pm CDT
Clear
Clear
 Wind from SSE
Wind: SSE 14 mph , 22 km/h, Gust: 23 mph , 37 km/h
Temperature: 86°F , 30°C
Heat Index: 92°F , 33°C
Dew Point: 72°F , 22°C
Humidity: 62%
Barometer: 29.78 inHg , 1008.5 hPa
Clouds: Clear
Visibility: 10 miles , 16 km
2017/09/19 17:53 KTOP 191753Z 16012G20KT 10SM CLR 30/22 A2978 RMK AO2 SLP075 T03000217 10306 20189 58021
KICT - Wichita, Kansas, USA
Distance from station: SW 215mi, 346km
Updated: Tue, 19-Sep-2017 12:53pm CDT
Few Clouds
Few Clouds
 Wind from S
Wind: S 24 mph , 39 km/h, Gust: 32 mph , 52 km/h
Temperature: 90°F , 32°C
Heat Index: 96°F , 36°C
Dew Point: 70°F , 21°C
Humidity: 52%
Barometer: 29.75 inHg , 1007.5 hPa
Clouds: Few Clouds
Visibility: 10 miles , 16 km
Cloud details: Few Clouds 22000 ft
2017/09/19 17:53 KICT 191753Z 17021G28KT 10SM FEW220 32/21 A2975 RMK AO2 PK WND 19030/1743 SLP057 CB DSIPTD T03170211 10322 20206 58022